Reno, NV (89501)

5:36 PM PDT on September 30, 2014 (GMT -0700)
MidTown | Change Station
CLOSE
Current Station
Personal Weather Station
Location: Reno, NV
Elevation: 4491 ft
Nearby Weather Stations

Elev 4491 ft 39.52 °N, 119.81 °W | Updated 1 minute ago

Scattered Clouds
Scattered Clouds
66.9 °F
Feels Like 66.9 °F
N
-
Wind Variable Wind from North

Today
High -- | Low -- °F
--% Chance of Precip.
Yesterday
High -- | Low -- °F
Precip. -- in
6:54 AM 6:43 PM
Waxing Crescent, 41% visible
Pressure 29.84 in
Visibility 10.0 miles
Clouds Scattered Clouds 8000 ft
Dew Point 43 °F
Humidity 42%
Rainfall 0.00 in
Snow Depth 0 in , 0 in , 0 in
UV 1 out of 12
Pollen 5.60 out of 12
Air Quality Not available.
Flu Activity Not available.
METAR KRNO 302355Z 03010KT 10SM SCT080 21/04 A2995 RMK AO2 SLP105 T02110039 10228 20178 55010 $

More Conditions Fewer Conditions

Pressure 29.84 in
Visibility 10.0 miles
Clouds Scattered Clouds 8000 ft
Dew Point 43 °F
Humidity 42%
Rainfall 0.00 in
Snow Depth 0 in , 0 in , 0 in
UV 1 out of 12
Pollen 5.60 out of 12
Air Quality Not available.
Flu Activity Not available.
METAR KRNO 302355Z 03010KT 10SM SCT080 21/04 A2995 RMK AO2 SLP105 T02110039 10228 20178 55010 $

More Conditions Fewer Conditions

10-Day Weather Forecast

Almanac

Astronomy

Sep. 30, 2014 Rise Set
Actual Time 6:54 AM PDT 6:43 PM PDT
Civil Twilight 6:27 AM PDT 7:09 PM PDT
Nautical Twilight 5:56 AM PDT 7:41 PM PDT
Astronomical Twilight 5:24 AM PDT 8:12 PM PDT
Moon 1:06 PM PDT (9/30) 11:19 PM PDT (9/30)
Length of Visible Light 12h 42m
Length of Day
11h 48m
Tomorrow will be 2m 34s shorter.
Waxing Crescent, 41% of the Moon is Illuminated
Today
Waxing Crescent
Oct 1
First Quarter
Oct 8
Full
Oct 15
Last Quarter
Oct 23
New

Today's Extremes

State Highs State Lows

Community

WunderPhotos

Upload Photos

1,757,792 photos uploaded!

Nearby

Snow Depth

Station Depth Elevation
Green Mountain 0 in 8000 ft
Disaster Peak 0 in 6500 ft
Lewis Peak 0 in 7400 ft
Dorsey Basin 0 in 8100 ft
Jacks Peak 4 in 8420 ft

Earthquake Activity

City Distance Mag. Time & Date
No recent earthquake activity has been reported nearby.
Minimum magnitude displayed is 2.5.

Coastal Water Temperatures

Place Temperature
No Stations Reporting

Nearby Weather Stations